sensor_id;sensor_type;location;lat;lon;timestamp;P1;durP1;ratioP1;P2;durP2;ratioP2
24161;SDS011;12318;51.262;7.066;2023-12-04T00:00:51;28.45;;;16.70;;
24161;SDS011;12318;51.262;7.066;2023-12-04T00:03:17;26.10;;;15.13;;
24161;SDS011;12318;51.262;7.066;2023-12-04T00:05:43;27.60;;;16.05;;
24161;SDS011;12318;51.262;7.066;2023-12-04T00:08:12;25.83;;;16.23;;
24161;SDS011;12318;51.262;7.066;2023-12-04T00:10:38;27.63;;;15.88;;
24161;SDS011;12318;51.262;7.066;2023-12-04T00:13:04;24.35;;;15.48;;
24161;SDS011;12318;51.262;7.066;2023-12-04T00:15:30;27.02;;;16.45;;
24161;SDS011;12318;51.262;7.066;2023-12-04T00:17:59;25.30;;;15.85;;
24161;SDS011;12318;51.262;7.066;2023-12-04T00:20:26;24.80;;;15.15;;
24161;SDS011;12318;51.262;7.066;2023-12-04T00:22:52;25.92;;;14.52;;
24161;SDS011;12318;51.262;7.066;2023-12-04T00:25:19;25.55;;;12.60;;
24161;SDS011;12318;51.262;7.066;2023-12-04T00:27:45;24.95;;;14.43;;
24161;SDS011;12318;51.262;7.066;2023-12-04T00:30:11;25.20;;;15.13;;
24161;SDS011;12318;51.262;7.066;2023-12-04T00:32:38;24.35;;;14.55;;
24161;SDS011;12318;51.262;7.066;2023-12-04T00:35:06;20.05;;;11.70;;
24161;SDS011;12318;51.262;7.066;2023-12-04T00:37:35;26.55;;;14.02;;
24161;SDS011;12318;51.262;7.066;2023-12-04T00:40:03;21.45;;;14.88;;
24161;SDS011;12318;51.262;7.066;2023-12-04T00:42:32;19.05;;;11.40;;
24161;SDS011;12318;51.262;7.066;2023-12-04T00:44:59;22.02;;;14.15;;
24161;SDS011;12318;51.262;7.066;2023-12-04T00:47:25;21.80;;;13.85;;
24161;SDS011;12318;51.262;7.066;2023-12-04T00:49:56;22.55;;;13.50;;
24161;SDS011;12318;51.262;7.066;2023-12-04T00:52:24;24.25;;;13.05;;
24161;SDS011;12318;51.262;7.066;2023-12-04T00:54:53;21.95;;;12.80;;
24161;SDS011;12318;51.262;7.066;2023-12-04T00:57:21;22.35;;;12.75;;
24161;SDS011;12318;51.262;7.066;2023-12-04T00:59:48;18.70;;;10.52;;
24161;SDS011;12318;51.262;7.066;2023-12-04T01:02:14;19.50;;;11.95;;
24161;SDS011;12318;51.262;7.066;2023-12-04T01:04:40;14.43;;;7.10;;
24161;SDS011;12318;51.262;7.066;2023-12-04T01:07:07;18.20;;;9.90;;
24161;SDS011;12318;51.262;7.066;2023-12-04T01:09:36;19.88;;;11.48;;
24161;SDS011;12318;51.262;7.066;2023-12-04T01:14:37;18.77;;;10.23;;
24161;SDS011;12318;51.262;7.066;2023-12-04T01:17:04;19.35;;;12.02;;
24161;SDS011;12318;51.262;7.066;2023-12-04T01:19:31;21.60;;;13.15;;
24161;SDS011;12318;51.262;7.066;2023-12-04T01:21:57;16.42;;;10.20;;
24161;SDS011;12318;51.262;7.066;2023-12-04T01:24:23;21.90;;;12.98;;
24161;SDS011;12318;51.262;7.066;2023-12-04T01:26:50;19.35;;;12.30;;
24161;SDS011;12318;51.262;7.066;2023-12-04T01:29:16;20.92;;;12.70;;
24161;SDS011;12318;51.262;7.066;2023-12-04T01:31:42;19.95;;;11.07;;
24161;SDS011;12318;51.262;7.066;2023-12-04T01:34:08;22.55;;;12.23;;
24161;SDS011;12318;51.262;7.066;2023-12-04T01:36:34;17.50;;;11.55;;
24161;SDS011;12318;51.262;7.066;2023-12-04T01:39:00;21.13;;;11.40;;
24161;SDS011;12318;51.262;7.066;2023-12-04T01:41:28;18.38;;;10.50;;
24161;SDS011;12318;51.262;7.066;2023-12-04T01:43:54;18.80;;;9.90;;
24161;SDS011;12318;51.262;7.066;2023-12-04T01:46:20;18.05;;;9.20;;
24161;SDS011;12318;51.262;7.066;2023-12-04T01:48:47;16.00;;;8.05;;
24161;SDS011;12318;51.262;7.066;2023-12-04T01:51:13;19.00;;;9.95;;
24161;SDS011;12318;51.262;7.066;2023-12-04T01:53:40;18.75;;;10.75;;
24161;SDS011;12318;51.262;7.066;2023-12-04T01:56:06;11.35;;;5.85;;
24161;SDS011;12318;51.262;7.066;2023-12-04T01:58:33;17.92;;;9.70;;
24161;SDS011;12318;51.262;7.066;2023-12-04T02:00:59;24.33;;;10.98;;
24161;SDS011;12318;51.262;7.066;2023-12-04T02:03:26;20.48;;;11.38;;
24161;SDS011;12318;51.262;7.066;2023-12-04T02:05:52;19.02;;;10.57;;
24161;SDS011;12318;51.262;7.066;2023-12-04T02:08:19;18.40;;;11.43;;
24161;SDS011;12318;51.262;7.066;2023-12-04T02:10:45;19.20;;;11.48;;
24161;SDS011;12318;51.262;7.066;2023-12-04T02:13:11;19.77;;;10.20;;
24161;SDS011;12318;51.262;7.066;2023-12-04T02:15:37;17.58;;;11.38;;
24161;SDS011;12318;51.262;7.066;2023-12-04T02:18:03;19.17;;;11.65;;
24161;SDS011;12318;51.262;7.066;2023-12-04T02:20:33;16.25;;;10.85;;
24161;SDS011;12318;51.262;7.066;2023-12-04T02:23:00;18.02;;;10.77;;
24161;SDS011;12318;51.262;7.066;2023-12-04T02:25:27;17.98;;;10.20;;
24161;SDS011;12318;51.262;7.066;2023-12-04T02:27:53;18.05;;;11.02;;
24161;SDS011;12318;51.262;7.066;2023-12-04T02:30:21;17.88;;;11.00;;
24161;SDS011;12318;51.262;7.066;2023-12-04T02:32:48;16.38;;;10.32;;
24161;SDS011;12318;51.262;7.066;2023-12-04T02:35:15;22.23;;;10.45;;
24161;SDS011;12318;51.262;7.066;2023-12-04T02:37:42;14.27;;;9.65;;
24161;SDS011;12318;51.262;7.066;2023-12-04T02:40:10;17.92;;;10.40;;
24161;SDS011;12318;51.262;7.066;2023-12-04T02:42:36;14.80;;;7.25;;
24161;SDS011;12318;51.262;7.066;2023-12-04T02:45:02;13.23;;;7.28;;
24161;SDS011;12318;51.262;7.066;2023-12-04T02:47:29;18.55;;;10.32;;
24161;SDS011;12318;51.262;7.066;2023-12-04T02:49:55;11.95;;;7.10;;
24161;SDS011;12318;51.262;7.066;2023-12-04T02:52:21;17.70;;;9.75;;
24161;SDS011;12318;51.262;7.066;2023-12-04T02:54:47;15.88;;;9.35;;
24161;SDS011;12318;51.262;7.066;2023-12-04T02:57:13;12.73;;;5.43;;
24161;SDS011;12318;51.262;7.066;2023-12-04T02:59:39;12.75;;;8.07;;
24161;SDS011;12318;51.262;7.066;2023-12-04T03:02:06;13.82;;;7.63;;
24161;SDS011;12318;51.262;7.066;2023-12-04T03:04:32;13.68;;;7.72;;
24161;SDS011;12318;51.262;7.066;2023-12-04T03:06:58;16.85;;;9.25;;
24161;SDS011;12318;51.262;7.066;2023-12-04T03:09:24;15.40;;;8.77;;
24161;SDS011;12318;51.262;7.066;2023-12-04T03:11:50;14.27;;;8.77;;
24161;SDS011;12318;51.262;7.066;2023-12-04T03:14:16;15.73;;;9.30;;
24161;SDS011;12318;51.262;7.066;2023-12-04T03:16:42;12.75;;;7.63;;
24161;SDS011;12318;51.262;7.066;2023-12-04T03:19:09;12.63;;;7.20;;
24161;SDS011;12318;51.262;7.066;2023-12-04T03:21:35;13.52;;;7.63;;
24161;SDS011;12318;51.262;7.066;2023-12-04T03:24:01;12.13;;;5.03;;
24161;SDS011;12318;51.262;7.066;2023-12-04T03:26:27;13.07;;;6.88;;
24161;SDS011;12318;51.262;7.066;2023-12-04T03:28:53;13.88;;;7.07;;
24161;SDS011;12318;51.262;7.066;2023-12-04T03:31:20;10.25;;;4.85;;
24161;SDS011;12318;51.262;7.066;2023-12-04T03:33:46;11.00;;;6.45;;
24161;SDS011;12318;51.262;7.066;2023-12-04T03:36:12;12.48;;;6.90;;
24161;SDS011;12318;51.262;7.066;2023-12-04T03:38:39;13.25;;;8.77;;
24161;SDS011;12318;51.262;7.066;2023-12-04T03:41:05;13.63;;;8.20;;
24161;SDS011;12318;51.262;7.066;2023-12-04T03:43:32;13.93;;;6.80;;
24161;SDS011;12318;51.262;7.066;2023-12-04T03:45:58;8.80;;;4.95;;
24161;SDS011;12318;51.262;7.066;2023-12-04T03:48:24;13.93;;;7.22;;
24161;SDS011;12318;51.262;7.066;2023-12-04T03:50:50;11.13;;;7.00;;
24161;SDS011;12318;51.262;7.066;2023-12-04T03:53:17;11.50;;;7.13;;
24161;SDS011;12318;51.262;7.066;2023-12-04T03:55:43;14.75;;;6.57;;
24161;SDS011;12318;51.262;7.066;2023-12-04T03:58:09;13.05;;;7.97;;
24161;SDS011;12318;51.262;7.066;2023-12-04T04:00:35;14.40;;;8.35;;
24161;SDS011;12318;51.262;7.066;2023-12-04T04:03:05;14.77;;;6.90;;
24161;SDS011;12318;51.262;7.066;2023-12-04T04:05:31;13.40;;;8.13;;
24161;SDS011;12318;51.262;7.066;2023-12-04T04:07:59;15.18;;;7.05;;
24161;SDS011;12318;51.262;7.066;2023-12-04T04:10:25;9.77;;;5.50;;
24161;SDS011;12318;51.262;7.066;2023-12-04T04:12:51;14.05;;;6.85;;
24161;SDS011;12318;51.262;7.066;2023-12-04T04:15:17;12.13;;;7.68;;
24161;SDS011;12318;51.262;7.066;2023-12-04T04:17:44;13.55;;;7.63;;
24161;SDS011;12318;51.262;7.066;2023-12-04T04:20:10;8.85;;;4.47;;
24161;SDS011;12318;51.262;7.066;2023-12-04T04:22:37;11.10;;;6.88;;
24161;SDS011;12318;51.262;7.066;2023-12-04T04:25:08;11.82;;;7.10;;
24161;SDS011;12318;51.262;7.066;2023-12-04T04:27:34;11.57;;;6.60;;
24161;SDS011;12318;51.262;7.066;2023-12-04T04:30:00;12.23;;;7.00;;
24161;SDS011;12318;51.262;7.066;2023-12-04T04:32:26;10.18;;;5.50;;
24161;SDS011;12318;51.262;7.066;2023-12-04T04:34:52;12.88;;;7.28;;
24161;SDS011;12318;51.262;7.066;2023-12-04T04:37:19;11.98;;;5.55;;
24161;SDS011;12318;51.262;7.066;2023-12-04T04:39:45;13.57;;;7.00;;
24161;SDS011;12318;51.262;7.066;2023-12-04T04:42:11;13.95;;;7.05;;
24161;SDS011;12318;51.262;7.066;2023-12-04T04:44:37;12.35;;;7.18;;
24161;SDS011;12318;51.262;7.066;2023-12-04T04:47:04;10.73;;;5.18;;
24161;SDS011;12318;51.262;7.066;2023-12-04T04:49:30;13.38;;;6.72;;
24161;SDS011;12318;51.262;7.066;2023-12-04T04:51:56;8.52;;;4.63;;
24161;SDS011;12318;51.262;7.066;2023-12-04T04:54:22;11.00;;;6.47;;
24161;SDS011;12318;51.262;7.066;2023-12-04T04:56:48;12.73;;;5.20;;
24161;SDS011;12318;51.262;7.066;2023-12-04T04:59:14;12.32;;;6.47;;
24161;SDS011;12318;51.262;7.066;2023-12-04T05:01:40;8.73;;;4.97;;
24161;SDS011;12318;51.262;7.066;2023-12-04T05:04:06;14.13;;;8.48;;
24161;SDS011;12318;51.262;7.066;2023-12-04T05:06:32;11.00;;;4.65;;
24161;SDS011;12318;51.262;7.066;2023-12-04T05:08:59;15.77;;;7.95;;
24161;SDS011;12318;51.262;7.066;2023-12-04T05:11:25;15.23;;;7.90;;
24161;SDS011;12318;51.262;7.066;2023-12-04T05:13:51;14.43;;;8.90;;
24161;SDS011;12318;51.262;7.066;2023-12-04T05:16:17;15.02;;;8.57;;
24161;SDS011;12318;51.262;7.066;2023-12-04T05:18:43;14.40;;;8.80;;
24161;SDS011;12318;51.262;7.066;2023-12-04T05:21:09;13.40;;;8.60;;
24161;SDS011;12318;51.262;7.066;2023-12-04T05:23:36;13.25;;;7.88;;
24161;SDS011;12318;51.262;7.066;2023-12-04T05:26:02;14.80;;;8.05;;
24161;SDS011;12318;51.262;7.066;2023-12-04T05:28:28;15.90;;;9.00;;
24161;SDS011;12318;51.262;7.066;2023-12-04T05:30:54;14.13;;;6.15;;
24161;SDS011;12318;51.262;7.066;2023-12-04T05:33:20;15.45;;;7.95;;
24161;SDS011;12318;51.262;7.066;2023-12-04T05:35:50;14.65;;;8.75;;
24161;SDS011;12318;51.262;7.066;2023-12-04T05:38:17;12.77;;;6.63;;
24161;SDS011;12318;51.262;7.066;2023-12-04T05:40:43;16.42;;;9.50;;
24161;SDS011;12318;51.262;7.066;2023-12-04T05:43:09;17.35;;;9.23;;
24161;SDS011;12318;51.262;7.066;2023-12-04T05:45:35;15.55;;;9.45;;
24161;SDS011;12318;51.262;7.066;2023-12-04T05:48:02;13.90;;;7.93;;
24161;SDS011;12318;51.262;7.066;2023-12-04T05:50:28;13.15;;;9.32;;
24161;SDS011;12318;51.262;7.066;2023-12-04T05:52:54;16.90;;;9.57;;
24161;SDS011;12318;51.262;7.066;2023-12-04T05:55:20;16.40;;;8.93;;
24161;SDS011;12318;51.262;7.066;2023-12-04T05:57:47;15.35;;;8.65;;
24161;SDS011;12318;51.262;7.066;2023-12-04T06:00:13;15.23;;;9.88;;
24161;SDS011;12318;51.262;7.066;2023-12-04T06:02:40;16.42;;;10.27;;
24161;SDS011;12318;51.262;7.066;2023-12-04T06:05:07;13.73;;;7.28;;
24161;SDS011;12318;51.262;7.066;2023-12-04T06:07:34;14.07;;;9.23;;
24161;SDS011;12318;51.262;7.066;2023-12-04T06:10:00;16.20;;;9.55;;
24161;SDS011;12318;51.262;7.066;2023-12-04T06:12:26;16.02;;;9.75;;
24161;SDS011;12318;51.262;7.066;2023-12-04T06:14:52;13.63;;;8.68;;
24161;SDS011;12318;51.262;7.066;2023-12-04T06:17:18;15.93;;;9.77;;
24161;SDS011;12318;51.262;7.066;2023-12-04T06:19:46;15.32;;;7.55;;
24161;SDS011;12318;51.262;7.066;2023-12-04T06:22:12;17.52;;;10.15;;
24161;SDS011;12318;51.262;7.066;2023-12-04T06:24:38;14.38;;;9.68;;
24161;SDS011;12318;51.262;7.066;2023-12-04T06:27:05;16.25;;;9.23;;
24161;SDS011;12318;51.262;7.066;2023-12-04T06:29:33;18.05;;;11.00;;
24161;SDS011;12318;51.262;7.066;2023-12-04T06:32:00;16.83;;;10.43;;
24161;SDS011;12318;51.262;7.066;2023-12-04T06:34:26;19.67;;;9.93;;
24161;SDS011;12318;51.262;7.066;2023-12-04T06:36:53;15.15;;;9.23;;
24161;SDS011;12318;51.262;7.066;2023-12-04T06:39:20;16.60;;;9.77;;
24161;SDS011;12318;51.262;7.066;2023-12-04T06:41:47;19.42;;;9.45;;
24161;SDS011;12318;51.262;7.066;2023-12-04T06:44:14;16.67;;;9.70;;
24161;SDS011;12318;51.262;7.066;2023-12-04T06:46:40;17.42;;;9.77;;
24161;SDS011;12318;51.262;7.066;2023-12-04T06:49:06;15.80;;;10.18;;
24161;SDS011;12318;51.262;7.066;2023-12-04T06:51:34;14.57;;;8.40;;
24161;SDS011;12318;51.262;7.066;2023-12-04T06:54:00;16.83;;;9.18;;
24161;SDS011;12318;51.262;7.066;2023-12-04T06:56:28;15.63;;;9.98;;
24161;SDS011;12318;51.262;7.066;2023-12-04T06:58:54;13.38;;;8.15;;
24161;SDS011;12318;51.262;7.066;2023-12-04T07:01:20;15.60;;;9.48;;
24161;SDS011;12318;51.262;7.066;2023-12-04T07:03:47;14.90;;;9.82;;
24161;SDS011;12318;51.262;7.066;2023-12-04T07:06:13;15.10;;;8.95;;
24161;SDS011;12318;51.262;7.066;2023-12-04T07:08:39;14.88;;;8.98;;
24161;SDS011;12318;51.262;7.066;2023-12-04T07:11:06;13.40;;;8.10;;
24161;SDS011;12318;51.262;7.066;2023-12-04T07:13:33;12.55;;;8.63;;
24161;SDS011;12318;51.262;7.066;2023-12-04T07:15:59;10.77;;;6.00;;
24161;SDS011;12318;51.262;7.066;2023-12-04T07:18:25;13.32;;;8.65;;
24161;SDS011;12318;51.262;7.066;2023-12-04T07:20:52;14.23;;;8.50;;
24161;SDS011;12318;51.262;7.066;2023-12-04T07:23:18;12.68;;;7.50;;
24161;SDS011;12318;51.262;7.066;2023-12-04T07:25:44;15.65;;;8.63;;
24161;SDS011;12318;51.262;7.066;2023-12-04T07:28:11;13.15;;;8.43;;
24161;SDS011;12318;51.262;7.066;2023-12-04T07:30:38;12.75;;;6.40;;
24161;SDS011;12318;51.262;7.066;2023-12-04T07:33:04;11.10;;;6.28;;
24161;SDS011;12318;51.262;7.066;2023-12-04T07:35:30;13.15;;;7.65;;
24161;SDS011;12318;51.262;7.066;2023-12-04T07:37:57;12.77;;;8.23;;
24161;SDS011;12318;51.262;7.066;2023-12-04T07:40:23;14.57;;;7.50;;
24161;SDS011;12318;51.262;7.066;2023-12-04T07:42:49;12.98;;;7.25;;
24161;SDS011;12318;51.262;7.066;2023-12-04T07:45:15;11.57;;;7.30;;
24161;SDS011;12318;51.262;7.066;2023-12-04T07:47:41;13.45;;;7.13;;
24161;SDS011;12318;51.262;7.066;2023-12-04T07:50:07;11.82;;;7.40;;
24161;SDS011;12318;51.262;7.066;2023-12-04T07:52:33;13.90;;;8.20;;
24161;SDS011;12318;51.262;7.066;2023-12-04T07:55:00;11.38;;;7.50;;
24161;SDS011;12318;51.262;7.066;2023-12-04T07:57:26;10.82;;;7.63;;
24161;SDS011;12318;51.262;7.066;2023-12-04T07:59:52;11.50;;;7.22;;
24161;SDS011;12318;51.262;7.066;2023-12-04T08:02:18;12.57;;;6.05;;
24161;SDS011;12318;51.262;7.066;2023-12-04T08:04:44;11.13;;;5.35;;
24161;SDS011;12318;51.262;7.066;2023-12-04T08:07:11;11.07;;;5.55;;
24161;SDS011;12318;51.262;7.066;2023-12-04T08:09:37;11.57;;;7.03;;
24161;SDS011;12318;51.262;7.066;2023-12-04T08:12:03;11.93;;;7.15;;
24161;SDS011;12318;51.262;7.066;2023-12-04T08:14:29;10.18;;;6.20;;
24161;SDS011;12318;51.262;7.066;2023-12-04T08:16:55;13.50;;;7.45;;
24161;SDS011;12318;51.262;7.066;2023-12-04T08:19:21;9.90;;;6.90;;
24161;SDS011;12318;51.262;7.066;2023-12-04T08:21:48;10.63;;;6.60;;
24161;SDS011;12318;51.262;7.066;2023-12-04T08:24:14;10.63;;;6.97;;
24161;SDS011;12318;51.262;7.066;2023-12-04T08:26:43;10.18;;;6.20;;
24161;SDS011;12318;51.262;7.066;2023-12-04T08:29:09;11.45;;;6.40;;
24161;SDS011;12318;51.262;7.066;2023-12-04T08:31:35;12.18;;;6.55;;
24161;SDS011;12318;51.262;7.066;2023-12-04T08:34:01;12.90;;;6.78;;
24161;SDS011;12318;51.262;7.066;2023-12-04T08:36:28;10.55;;;6.40;;
24161;SDS011;12318;51.262;7.066;2023-12-04T08:38:54;10.77;;;6.43;;
24161;SDS011;12318;51.262;7.066;2023-12-04T08:41:20;10.05;;;6.15;;
24161;SDS011;12318;51.262;7.066;2023-12-04T08:43:46;10.18;;;5.57;;
24161;SDS011;12318;51.262;7.066;2023-12-04T08:46:15;10.40;;;6.00;;
24161;SDS011;12318;51.262;7.066;2023-12-04T08:48:41;12.02;;;5.15;;
24161;SDS011;12318;51.262;7.066;2023-12-04T08:51:07;9.15;;;5.82;;
24161;SDS011;12318;51.262;7.066;2023-12-04T08:53:34;8.30;;;5.15;;
24161;SDS011;12318;51.262;7.066;2023-12-04T08:56:00;9.75;;;5.75;;
24161;SDS011;12318;51.262;7.066;2023-12-04T08:58:27;10.63;;;5.28;;
24161;SDS011;12318;51.262;7.066;2023-12-04T09:00:53;10.52;;;6.00;;
24161;SDS011;12318;51.262;7.066;2023-12-04T09:03:19;8.93;;;6.03;;
24161;SDS011;12318;51.262;7.066;2023-12-04T09:05:47;9.68;;;6.07;;
24161;SDS011;12318;51.262;7.066;2023-12-04T09:08:15;9.80;;;5.18;;
24161;SDS011;12318;51.262;7.066;2023-12-04T09:10:42;10.13;;;5.90;;
24161;SDS011;12318;51.262;7.066;2023-12-04T09:13:08;9.10;;;5.13;;
24161;SDS011;12318;51.262;7.066;2023-12-04T09:15:34;8.93;;;4.85;;
24161;SDS011;12318;51.262;7.066;2023-12-04T09:18:01;10.10;;;5.43;;
24161;SDS011;12318;51.262;7.066;2023-12-04T09:20:27;7.43;;;4.78;;
24161;SDS011;12318;51.262;7.066;2023-12-04T09:22:53;10.00;;;6.00;;
24161;SDS011;12318;51.262;7.066;2023-12-04T09:25:19;8.18;;;3.15;;
24161;SDS011;12318;51.262;7.066;2023-12-04T09:27:45;12.80;;;5.35;;
24161;SDS011;12318;51.262;7.066;2023-12-04T09:30:11;6.85;;;3.97;;
24161;SDS011;12318;51.262;7.066;2023-12-04T09:32:38;5.93;;;3.22;;
24161;SDS011;12318;51.262;7.066;2023-12-04T09:35:05;9.80;;;6.03;;
24161;SDS011;12318;51.262;7.066;2023-12-04T09:37:32;11.25;;;5.80;;
24161;SDS011;12318;51.262;7.066;2023-12-04T09:39:58;5.15;;;2.75;;
24161;SDS011;12318;51.262;7.066;2023-12-04T09:42:24;8.07;;;5.07;;
24161;SDS011;12318;51.262;7.066;2023-12-04T09:44:51;9.57;;;5.78;;
24161;SDS011;12318;51.262;7.066;2023-12-04T09:47:19;9.73;;;4.82;;
24161;SDS011;12318;51.262;7.066;2023-12-04T09:49:45;8.63;;;3.95;;
24161;SDS011;12318;51.262;7.066;2023-12-04T09:52:12;7.72;;;4.57;;
24161;SDS011;12318;51.262;7.066;2023-12-04T09:54:38;7.95;;;5.03;;
24161;SDS011;12318;51.262;7.066;2023-12-04T09:57:05;10.30;;;6.00;;
24161;SDS011;12318;51.262;7.066;2023-12-04T09:59:31;10.25;;;3.60;;
24161;SDS011;12318;51.262;7.066;2023-12-04T10:01:57;9.18;;;5.45;;
24161;SDS011;12318;51.262;7.066;2023-12-04T10:04:24;12.52;;;3.80;;
24161;SDS011;12318;51.262;7.066;2023-12-04T10:06:51;13.60;;;4.97;;
24161;SDS011;12318;51.262;7.066;2023-12-04T10:09:18;12.60;;;5.88;;
24161;SDS011;12318;51.262;7.066;2023-12-04T10:11:44;9.70;;;5.25;;
24161;SDS011;12318;51.262;7.066;2023-12-04T10:14:20;10.05;;;4.65;;
24161;SDS011;12318;51.262;7.066;2023-12-04T10:16:47;11.27;;;6.35;;
24161;SDS011;12318;51.262;7.066;2023-12-04T10:21:44;12.20;;;4.53;;
24161;SDS011;12318;51.262;7.066;2023-12-04T10:24:11;9.30;;;4.60;;
24161;SDS011;12318;51.262;7.066;2023-12-04T10:26:38;11.10;;;6.72;;
24161;SDS011;12318;51.262;7.066;2023-12-04T10:29:15;12.75;;;6.97;;
24161;SDS011;12318;51.262;7.066;2023-12-04T10:31:41;9.73;;;6.13;;
24161;SDS011;12318;51.262;7.066;2023-12-04T10:34:07;11.07;;;5.95;;
24161;SDS011;12318;51.262;7.066;2023-12-04T10:36:37;9.18;;;5.00;;
24161;SDS011;12318;51.262;7.066;2023-12-04T10:39:03;9.55;;;5.63;;
24161;SDS011;12318;51.262;7.066;2023-12-04T10:41:30;15.38;;;7.43;;
24161;SDS011;12318;51.262;7.066;2023-12-04T10:43:57;9.63;;;4.97;;
24161;SDS011;12318;51.262;7.066;2023-12-04T10:46:26;9.13;;;5.95;;
24161;SDS011;12318;51.262;7.066;2023-12-04T10:48:53;8.82;;;3.67;;
24161;SDS011;12318;51.262;7.066;2023-12-04T10:51:19;10.65;;;5.47;;
24161;SDS011;12318;51.262;7.066;2023-12-04T10:53:49;11.48;;;5.85;;
24161;SDS011;12318;51.262;7.066;2023-12-04T10:56:19;9.75;;;5.97;;
24161;SDS011;12318;51.262;7.066;2023-12-04T10:58:49;9.40;;;5.65;;
24161;SDS011;12318;51.262;7.066;2023-12-04T11:01:16;11.83;;;4.70;;
24161;SDS011;12318;51.262;7.066;2023-12-04T11:03:47;11.82;;;7.03;;
24161;SDS011;12318;51.262;7.066;2023-12-04T11:06:16;13.82;;;7.35;;
24161;SDS011;12318;51.262;7.066;2023-12-04T11:08:44;10.95;;;7.07;;
24161;SDS011;12318;51.262;7.066;2023-12-04T11:11:15;12.13;;;6.63;;
24161;SDS011;12318;51.262;7.066;2023-12-04T11:13:42;14.15;;;7.80;;
24161;SDS011;12318;51.262;7.066;2023-12-04T11:18:36;12.18;;;7.85;;
24161;SDS011;12318;51.262;7.066;2023-12-04T11:21:04;11.55;;;7.63;;
24161;SDS011;12318;51.262;7.066;2023-12-04T11:23:31;13.68;;;7.47;;
24161;SDS011;12318;51.262;7.066;2023-12-04T11:25:58;13.52;;;7.55;;
24161;SDS011;12318;51.262;7.066;2023-12-04T11:28:25;13.93;;;7.78;;
24161;SDS011;12318;51.262;7.066;2023-12-04T11:30:52;11.25;;;7.40;;
24161;SDS011;12318;51.262;7.066;2023-12-04T11:33:19;12.85;;;7.30;;
24161;SDS011;12318;51.262;7.066;2023-12-04T11:35:45;12.00;;;5.72;;
24161;SDS011;12318;51.262;7.066;2023-12-04T11:38:14;13.52;;;7.75;;
24161;SDS011;12318;51.262;7.066;2023-12-04T11:40:41;15.15;;;8.10;;
24161;SDS011;12318;51.262;7.066;2023-12-04T11:45:48;18.50;;;8.98;;
24161;SDS011;12318;51.262;7.066;2023-12-04T11:48:15;14.98;;;8.40;;
24161;SDS011;12318;51.262;7.066;2023-12-04T11:50:42;17.13;;;9.20;;
24161;SDS011;12318;51.262;7.066;2023-12-04T11:53:10;16.17;;;8.95;;
24161;SDS011;12318;51.262;7.066;2023-12-04T11:55:39;16.63;;;9.43;;
24161;SDS011;12318;51.262;7.066;2023-12-04T11:58:10;17.25;;;10.40;;
24161;SDS011;12318;51.262;7.066;2023-12-04T12:00:36;16.17;;;10.10;;
24161;SDS011;12318;51.262;7.066;2023-12-04T12:03:05;17.08;;;10.02;;
24161;SDS011;12318;51.262;7.066;2023-12-04T12:05:32;15.45;;;8.93;;
24161;SDS011;12318;51.262;7.066;2023-12-04T12:08:04;17.27;;;9.07;;
24161;SDS011;12318;51.262;7.066;2023-12-04T12:10:32;18.52;;;11.32;;
24161;SDS011;12318;51.262;7.066;2023-12-04T12:12:58;19.23;;;11.15;;
24161;SDS011;12318;51.262;7.066;2023-12-04T12:15:25;19.92;;;11.98;;
24161;SDS011;12318;51.262;7.066;2023-12-04T12:17:51;18.50;;;11.07;;
24161;SDS011;12318;51.262;7.066;2023-12-04T12:20:17;19.92;;;11.77;;
24161;SDS011;12318;51.262;7.066;2023-12-04T12:22:45;18.08;;;11.40;;
24161;SDS011;12318;51.262;7.066;2023-12-04T12:25:13;17.20;;;11.10;;
24161;SDS011;12318;51.262;7.066;2023-12-04T12:27:40;18.58;;;10.57;;
24161;SDS011;12318;51.262;7.066;2023-12-04T12:30:07;17.60;;;10.32;;
24161;SDS011;12318;51.262;7.066;2023-12-04T12:32:34;20.08;;;11.40;;
24161;SDS011;12318;51.262;7.066;2023-12-04T12:35:00;16.75;;;10.40;;
24161;SDS011;12318;51.262;7.066;2023-12-04T12:37:26;20.05;;;11.93;;
24161;SDS011;12318;51.262;7.066;2023-12-04T12:39:54;19.23;;;10.88;;
24161;SDS011;12318;51.262;7.066;2023-12-04T12:42:29;19.83;;;11.65;;
24161;SDS011;12318;51.262;7.066;2023-12-04T12:44:56;19.33;;;11.05;;
24161;SDS011;12318;51.262;7.066;2023-12-04T12:47:25;13.77;;;8.55;;
24161;SDS011;12318;51.262;7.066;2023-12-04T12:49:51;20.80;;;11.20;;
24161;SDS011;12318;51.262;7.066;2023-12-04T12:52:18;17.75;;;10.45;;
24161;SDS011;12318;51.262;7.066;2023-12-04T12:54:45;21.00;;;10.57;;
24161;SDS011;12318;51.262;7.066;2023-12-04T12:57:12;16.23;;;10.27;;
24161;SDS011;12318;51.262;7.066;2023-12-04T12:59:38;15.50;;;10.13;;
24161;SDS011;12318;51.262;7.066;2023-12-04T13:02:05;11.93;;;6.75;;
24161;SDS011;12318;51.262;7.066;2023-12-04T13:04:40;18.80;;;10.70;;
24161;SDS011;12318;51.262;7.066;2023-12-04T13:07:06;16.90;;;9.63;;
24161;SDS011;12318;51.262;7.066;2023-12-04T13:09:33;17.48;;;10.50;;
24161;SDS011;12318;51.262;7.066;2023-12-04T13:12:00;17.25;;;10.38;;
24161;SDS011;12318;51.262;7.066;2023-12-04T13:14:27;17.40;;;9.88;;
24161;SDS011;12318;51.262;7.066;2023-12-04T13:16:53;15.20;;;9.32;;
24161;SDS011;12318;51.262;7.066;2023-12-04T13:19:22;14.10;;;7.13;;
24161;SDS011;12318;51.262;7.066;2023-12-04T13:21:49;16.95;;;8.48;;
24161;SDS011;12318;51.262;7.066;2023-12-04T13:24:15;20.92;;;11.48;;
24161;SDS011;12318;51.262;7.066;2023-12-04T13:26:42;19.48;;;11.35;;
24161;SDS011;12318;51.262;7.066;2023-12-04T13:29:08;15.65;;;9.85;;
24161;SDS011;12318;51.262;7.066;2023-12-04T13:31:34;17.20;;;10.45;;
24161;SDS011;12318;51.262;7.066;2023-12-04T13:34:01;18.42;;;11.35;;
24161;SDS011;12318;51.262;7.066;2023-12-04T13:36:28;13.48;;;6.80;;
24161;SDS011;12318;51.262;7.066;2023-12-04T13:38:54;17.42;;;10.52;;
24161;SDS011;12318;51.262;7.066;2023-12-04T13:41:20;19.02;;;10.60;;
24161;SDS011;12318;51.262;7.066;2023-12-04T13:44:05;16.88;;;10.25;;
24161;SDS011;12318;51.262;7.066;2023-12-04T13:46:32;16.88;;;10.45;;
24161;SDS011;12318;51.262;7.066;2023-12-04T13:48:58;15.10;;;8.93;;
24161;SDS011;12318;51.262;7.066;2023-12-04T13:51:25;13.27;;;6.97;;
24161;SDS011;12318;51.262;7.066;2023-12-04T13:53:51;13.02;;;8.10;;
24161;SDS011;12318;51.262;7.066;2023-12-04T13:56:22;14.47;;;8.93;;
24161;SDS011;12318;51.262;7.066;2023-12-04T13:58:49;13.65;;;7.15;;
24161;SDS011;12318;51.262;7.066;2023-12-04T14:01:24;11.25;;;5.70;;
24161;SDS011;12318;51.262;7.066;2023-12-04T14:03:54;12.77;;;8.23;;
24161;SDS011;12318;51.262;7.066;2023-12-04T14:06:26;12.15;;;7.60;;
24161;SDS011;12318;51.262;7.066;2023-12-04T14:08:52;11.82;;;7.60;;
24161;SDS011;12318;51.262;7.066;2023-12-04T14:11:18;10.93;;;6.63;;
24161;SDS011;12318;51.262;7.066;2023-12-04T14:13:45;7.88;;;4.93;;
24161;SDS011;12318;51.262;7.066;2023-12-04T14:16:11;9.38;;;6.13;;
24161;SDS011;12318;51.262;7.066;2023-12-04T14:18:37;10.68;;;6.60;;
24161;SDS011;12318;51.262;7.066;2023-12-04T14:21:04;8.27;;;5.05;;
24161;SDS011;12318;51.262;7.066;2023-12-04T14:23:30;11.82;;;7.30;;
24161;SDS011;12318;51.262;7.066;2023-12-04T14:25:56;11.07;;;7.18;;
24161;SDS011;12318;51.262;7.066;2023-12-04T14:28:22;12.23;;;7.38;;
24161;SDS011;12318;51.262;7.066;2023-12-04T14:30:49;9.45;;;5.05;;
24161;SDS011;12318;51.262;7.066;2023-12-04T14:33:16;9.18;;;5.13;;
24161;SDS011;12318;51.262;7.066;2023-12-04T14:35:42;9.50;;;6.05;;
24161;SDS011;12318;51.262;7.066;2023-12-04T14:38:09;9.45;;;5.30;;
24161;SDS011;12318;51.262;7.066;2023-12-04T14:40:35;10.80;;;6.65;;